createdAt,value
2023-05-21T00:00:23.049Z,97505.47
2023-05-21T00:02:59.182Z,97492.50
2023-05-21T00:05:32.591Z,97494.19
2023-05-21T00:08:06.363Z,97488.06
2023-05-21T00:10:39.413Z,97484.78
2023-05-21T00:13:12.563Z,97487.19
2023-05-21T00:15:45.604Z,97470.75
2023-05-21T00:18:20.069Z,97481.06
2023-05-21T00:20:53.391Z,97487.88
2023-05-21T00:23:26.881Z,97483.41
2023-05-21T00:26:00.042Z,97480.03
2023-05-21T00:28:33.084Z,97476.44
2023-05-21T00:31:06.210Z,97472.91
2023-05-21T00:33:40.688Z,97465.97
2023-05-21T00:36:40.438Z,97465.03
2023-05-21T00:39:14.224Z,97459.69
2023-05-21T00:41:48.613Z,97456.22
2023-05-21T00:44:22.092Z,97457.66
2023-05-21T00:46:55.288Z,97461.88
2023-05-21T00:49:30.582Z,97459.22
2023-05-21T00:52:03.666Z,97455.72
2023-05-21T00:54:37.084Z,97450.53
2023-05-21T00:57:10.698Z,97457.38
2023-05-21T00:59:43.814Z,97451.34
2023-05-21T01:02:18.225Z,97452.00
2023-05-21T01:04:55.577Z,97451.03
2023-05-21T01:07:28.621Z,97449.34
2023-05-21T01:10:03.777Z,97450.09
2023-05-21T01:12:39.447Z,97444.75
2023-05-21T01:15:13.153Z,97455.03
2023-05-21T01:17:46.806Z,97453.28
2023-05-21T01:20:21.620Z,97448.97
2023-05-21T01:22:57.599Z,97449.72
2023-05-21T01:25:30.708Z,97448.78
2023-05-21T01:28:04.010Z,97459.91
2023-05-21T01:30:37.783Z,97457.38
2023-05-21T01:33:20.275Z,97457.28
2023-05-21T01:36:11.773Z,97462.25
2023-05-21T01:38:56.181Z,97456.91
2023-05-21T01:41:34.503Z,97462.81
2023-05-21T01:44:09.750Z,97459.28
2023-05-21T01:46:42.877Z,97465.22
2023-05-21T01:49:17.545Z,97462.59
2023-05-21T01:51:51.300Z,97453.94
2023-05-21T01:54:25.712Z,97448.81
2023-05-21T01:56:58.789Z,97451.28
2023-05-21T01:59:31.984Z,97455.38
2023-05-21T02:02:05.329Z,97449.38
2023-05-21T02:04:41.284Z,97453.53
2023-05-21T02:07:14.450Z,97449.19
2023-05-21T02:09:48.862Z,97448.19
2023-05-21T02:12:22.034Z,97448.06
2023-05-21T02:14:56.308Z,97448.19
2023-05-21T02:17:31.230Z,97445.63
2023-05-21T02:20:11.456Z,97456.72
2023-05-21T02:22:47.258Z,97442.16
2023-05-21T02:25:21.821Z,97447.00
2023-05-21T02:27:56.693Z,97447.06
2023-05-21T02:30:30.136Z,97445.91
2023-05-21T02:33:03.261Z,97446.56
2023-05-21T02:35:36.717Z,97439.38
2023-05-21T02:38:10.571Z,97438.69
2023-05-21T02:40:44.985Z,97432.78
2023-05-21T02:43:18.287Z,97437.75
2023-05-21T02:45:52.392Z,97431.56
2023-05-21T02:48:25.573Z,97427.13
2023-05-21T02:50:59.821Z,97432.25
2023-05-21T02:53:32.852Z,97434.78
2023-05-21T02:56:07.808Z,97433.94
2023-05-21T02:58:41.712Z,97436.38
2023-05-21T03:01:14.797Z,97432.88
2023-05-21T03:03:47.943Z,97428.53
2023-05-21T03:06:21.079Z,97437.91
2023-05-21T03:08:54.233Z,97441.19
2023-05-21T03:11:28.692Z,97436.69
2023-05-21T03:14:01.713Z,97428.94
2023-05-21T03:16:34.889Z,97432.31
2023-05-21T03:19:08.142Z,97425.34
2023-05-21T03:21:41.792Z,97432.09
2023-05-21T03:24:15.297Z,97426.28
2023-05-21T03:26:50.349Z,97427.97
2023-05-21T03:29:23.409Z,97426.16
2023-05-21T03:31:56.719Z,97432.97
2023-05-21T03:34:30.239Z,97422.59
2023-05-21T03:37:03.371Z,97428.63
2023-05-21T03:39:36.422Z,97431.06
2023-05-21T03:42:10.813Z,97427.56
2023-05-21T03:44:43.874Z,97432.66
2023-05-21T03:47:17.471Z,97430.16
2023-05-21T03:49:50.692Z,97426.53
2023-05-21T03:52:23.775Z,97430.41
2023-05-21T03:54:56.877Z,97433.06
2023-05-21T03:57:31.294Z,97433.06
2023-05-21T04:00:06.421Z,97444.94
2023-05-21T04:02:39.515Z,97440.63
2023-05-21T04:05:12.687Z,97442.41
2023-05-21T04:07:46.336Z,97450.47
2023-05-21T04:10:19.634Z,97454.31
2023-05-21T04:12:54.173Z,97454.31
2023-05-21T04:15:27.776Z,97450.38
2023-05-21T04:18:01.017Z,97451.88
2023-05-21T04:20:34.229Z,97453.59
2023-05-21T04:23:07.412Z,97457.72
2023-05-21T04:25:40.527Z,97456.81
2023-05-21T04:28:20.448Z,97457.03
2023-05-21T04:30:53.686Z,97452.78
2023-05-21T04:33:27.036Z,97452.00
2023-05-21T04:36:00.194Z,97465.91
2023-05-21T04:38:33.309Z,97459.09
2023-05-21T04:41:06.921Z,97454.78
2023-05-21T04:43:43.992Z,97460.00
2023-05-21T04:46:17.254Z,97467.22
2023-05-21T04:48:52.344Z,97464.72
2023-05-21T04:51:26.751Z,97461.31
2023-05-21T04:53:59.883Z,97467.66
2023-05-21T04:56:32.959Z,97471.13
2023-05-21T04:59:07.615Z,97469.31
2023-05-21T05:01:41.176Z,97471.13
2023-05-21T05:04:14.460Z,97477.91
2023-05-21T05:06:47.691Z,97478.69
2023-05-21T05:09:24.078Z,97474.69
2023-05-21T05:11:57.405Z,97472.22
2023-05-21T05:14:31.962Z,97473.31
2023-05-21T05:17:05.704Z,97480.06
2023-05-21T05:19:38.954Z,97476.69
2023-05-21T05:22:13.531Z,97476.91
2023-05-21T05:24:46.832Z,97474.34
2023-05-21T05:27:19.953Z,97476.34
2023-05-21T05:29:54.374Z,97477.88
2023-05-21T05:32:27.450Z,97473.69
2023-05-21T05:35:02.423Z,97473.03
2023-05-21T05:37:35.914Z,97469.75
2023-05-21T05:40:10.047Z,97470.22
2023-05-21T05:42:43.211Z,97475.69
2023-05-21T05:45:17.661Z,97474.56
2023-05-21T05:47:50.906Z,97468.94
2023-05-21T05:50:24.070Z,97466.78
2023-05-21T05:52:57.324Z,97464.66
2023-05-21T05:55:30.652Z,97468.53
2023-05-21T05:58:03.801Z,97460.22
2023-05-21T06:00:38.285Z,97463.88
2023-05-21T06:03:12.163Z,97468.53
2023-05-21T06:05:45.751Z,97468.88
2023-05-21T06:08:18.974Z,97460.09
2023-05-21T06:10:52.551Z,97460.31
2023-05-21T06:13:25.646Z,97462.75
2023-05-21T06:16:00.623Z,97460.59
2023-05-21T06:18:33.843Z,97464.75
2023-05-21T06:21:07.165Z,97472.19
2023-05-21T06:23:40.302Z,97468.94
2023-05-21T06:26:13.452Z,97461.44
2023-05-21T06:28:46.692Z,97466.13
2023-05-21T06:31:23.523Z,97470.09
2023-05-21T06:33:56.928Z,97464.38
2023-05-21T06:36:32.374Z,97471.59
2023-05-21T06:39:05.706Z,97474.53
2023-05-21T06:41:38.901Z,97470.03
2023-05-21T06:44:12.173Z,97463.22
2023-05-21T06:46:46.606Z,97467.97
2023-05-21T06:49:19.809Z,97467.50
2023-05-21T06:51:52.938Z,97466.91
2023-05-21T06:54:27.072Z,97467.91
2023-05-21T06:57:00.354Z,97469.66
2023-05-21T06:59:34.649Z,97470.72
2023-05-21T07:02:09.475Z,97470.56
2023-05-21T07:04:42.632Z,97467.22
2023-05-21T07:07:15.807Z,97471.66
2023-05-21T07:09:49.290Z,97463.13
2023-05-21T07:12:22.553Z,97472.66
2023-05-21T07:14:57.546Z,97479.66
2023-05-21T07:17:33.442Z,97472.88
2023-05-21T07:20:08.952Z,97473.00
2023-05-21T07:22:44.942Z,97469.66
2023-05-21T07:25:18.230Z,97470.59
2023-05-21T07:27:51.333Z,97466.38
2023-05-21T07:30:24.594Z,97476.06
2023-05-21T07:32:59.131Z,97470.84
2023-05-21T07:35:32.325Z,97474.31
2023-05-21T07:38:06.235Z,97464.78
2023-05-21T07:40:39.410Z,97470.88
2023-05-21T07:43:13.242Z,97473.47
2023-05-21T07:45:46.416Z,97471.66
2023-05-21T07:48:21.068Z,97468.16
2023-05-21T07:50:54.690Z,97474.81
2023-05-21T07:53:28.861Z,97472.09
2023-05-21T07:56:02.441Z,97462.31
2023-05-21T07:58:36.168Z,97463.84
2023-05-21T08:01:09.350Z,97469.09
2023-05-21T08:03:44.032Z,97461.91
2023-05-21T08:06:17.455Z,97466.47
2023-05-21T08:08:50.840Z,97464.75
2023-05-21T08:11:23.989Z,97468.56
2023-05-21T08:13:57.237Z,97471.88
2023-05-21T08:16:30.490Z,97476.31
2023-05-21T08:19:05.145Z,97464.13
2023-05-21T08:21:38.415Z,97471.31
2023-05-21T08:24:11.673Z,97475.63
2023-05-21T08:26:45.213Z,97469.56
2023-05-21T08:29:18.394Z,97483.78
2023-05-21T08:31:51.593Z,97476.94
2023-05-21T08:34:26.749Z,97472.56
2023-05-21T08:36:59.879Z,97471.72
2023-05-21T08:39:33.103Z,97487.41
2023-05-21T08:42:17.685Z,97482.19
2023-05-21T08:45:00.479Z,97472.59
2023-05-21T08:47:36.880Z,97469.97
2023-05-21T08:50:15.044Z,97481.31
2023-05-21T08:52:48.564Z,97488.22
2023-05-21T08:55:22.507Z,97477.78
2023-05-21T08:57:56.657Z,97481.28
2023-05-21T09:00:29.884Z,97485.63
2023-05-21T09:03:07.732Z,97488.09
2023-05-21T09:05:43.544Z,97482.16
2023-05-21T09:08:21.137Z,97495.22
2023-05-21T09:10:54.618Z,97486.50
2023-05-21T09:13:28.884Z,97497.81
2023-05-21T09:16:02.253Z,97495.22
2023-05-21T09:18:35.510Z,97502.16
2023-05-21T09:21:29.272Z,97496.94
2023-05-21T09:24:02.713Z,97501.16
2023-05-21T09:26:35.828Z,97494.25
2023-05-21T09:29:09.248Z,97497.78
2023-05-21T09:31:45.419Z,97485.63
2023-05-21T09:34:18.907Z,97486.50
2023-05-21T09:36:53.655Z,97488.25
2023-05-21T09:39:30.599Z,97483.78
2023-05-21T09:42:03.742Z,97480.34
2023-05-21T09:44:36.998Z,97478.56
2023-05-21T09:47:10.549Z,97482.00
2023-05-21T09:49:45.657Z,97481.13
2023-05-21T09:52:27.580Z,97481.19
2023-05-21T09:55:01.487Z,97482.00
2023-05-21T09:57:41.566Z,97474.16
2023-05-21T10:00:21.317Z,97476.66
2023-05-21T10:02:57.214Z,97471.47
2023-05-21T10:05:32.068Z,97477.41
2023-05-21T10:08:10.642Z,97477.47
2023-05-21T10:10:45.400Z,97481.91
2023-05-21T10:13:23.070Z,97479.19
2023-05-21T10:16:03.323Z,97478.31
2023-05-21T10:18:39.053Z,97487.09
2023-05-21T10:21:12.321Z,97480.09
2023-05-21T10:23:47.644Z,97478.19
2023-05-21T10:26:23.370Z,97476.50
2023-05-21T10:29:00.315Z,97476.56
2023-05-21T10:31:35.027Z,97474.84
2023-05-21T10:34:08.879Z,97470.56
2023-05-21T10:36:42.980Z,97468.63
2023-05-21T10:39:20.774Z,97480.75
2023-05-21T10:42:04.768Z,97473.03
2023-05-21T10:44:55.527Z,97473.81
2023-05-21T10:47:59.605Z,97472.00
2023-05-21T10:51:11.858Z,97470.31
2023-05-21T10:54:05.555Z,97472.19
2023-05-21T10:56:43.981Z,97467.19
2023-05-21T10:59:31.660Z,97471.50
2023-05-21T11:02:07.088Z,97470.59
2023-05-21T11:04:43.374Z,97461.72
2023-05-21T11:07:24.172Z,97470.44
2023-05-21T11:10:33.006Z,97465.13
2023-05-21T11:13:14.224Z,97463.25
2023-05-21T11:16:08.072Z,97465.72
2023-05-21T11:19:02.483Z,97465.78
2023-05-21T11:21:36.245Z,97464.13
2023-05-21T11:24:11.272Z,97463.28
2023-05-21T11:27:04.972Z,97472.78
2023-05-21T11:29:45.413Z,97467.59
2023-05-21T11:32:20.756Z,97461.59
2023-05-21T11:34:54.043Z,97466.66
2023-05-21T11:37:34.526Z,97466.59
2023-05-21T11:40:26.086Z,97456.88
2023-05-21T11:42:59.457Z,97463.97
2023-05-21T11:45:34.671Z,97452.00
2023-05-21T11:48:08.446Z,97449.28
2023-05-21T11:50:42.496Z,97450.69
2023-05-21T11:53:16.309Z,97452.56
2023-05-21T11:55:57.221Z,97456.78
2023-05-21T11:58:32.675Z,97456.75
2023-05-21T12:01:07.325Z,97460.38
2023-05-21T12:03:40.739Z,97457.78
2023-05-21T12:06:14.153Z,97463.78
2023-05-21T12:08:58.104Z,97459.66
2023-05-21T12:11:31.574Z,97460.72
2023-05-21T12:14:04.904Z,97462.47
2023-05-21T12:16:41.297Z,97457.34
2023-05-21T12:19:18.682Z,97455.50
2023-05-21T12:21:52.177Z,97453.28
2023-05-21T12:24:25.490Z,97446.38
2023-05-21T12:27:01.390Z,97447.50
2023-05-21T12:29:35.618Z,97448.44
2023-05-21T12:32:12.800Z,97447.50
2023-05-21T12:34:48.678Z,97442.03
2023-05-21T12:37:23.945Z,97444.50
2023-05-21T12:40:00.848Z,97442.88
2023-05-21T12:42:35.466Z,97444.53
2023-05-21T12:45:10.472Z,97447.16
2023-05-21T12:47:55.923Z,97448.66
2023-05-21T12:50:29.617Z,97449.94
2023-05-21T12:53:02.771Z,97446.44
2023-05-21T12:55:37.341Z,97440.47
2023-05-21T12:58:14.862Z,97437.88
2023-05-21T13:00:48.651Z,97448.38
2023-05-21T13:03:25.134Z,97435.09
2023-05-21T13:06:01.234Z,97442.91
2023-05-21T13:08:34.780Z,97445.59
2023-05-21T13:11:08.031Z,97436.88
2023-05-21T13:13:41.220Z,97432.50
2023-05-21T13:16:14.463Z,97434.25
2023-05-21T13:18:48.944Z,97434.19
2023-05-21T13:21:22.142Z,97423.75
2023-05-21T13:23:55.467Z,97435.03
2023-05-21T13:26:28.802Z,97429.72
2023-05-21T13:29:02.002Z,97423.59
2023-05-21T13:31:35.111Z,97425.34
2023-05-21T13:34:09.508Z,97420.03
2023-05-21T13:36:43.086Z,97425.06
2023-05-21T13:39:16.411Z,97421.50
2023-05-21T13:41:49.641Z,97420.53
2023-05-21T13:44:22.724Z,97421.25
2023-05-21T13:46:55.843Z,97421.38
2023-05-21T13:49:30.597Z,97422.16
2023-05-21T13:52:04.682Z,97422.84
2023-05-21T13:54:37.839Z,97424.66
2023-05-21T13:57:11.086Z,97420.22
2023-05-21T13:59:44.174Z,97417.59
2023-05-21T14:02:17.391Z,97417.50
2023-05-21T14:04:51.795Z,97425.25
2023-05-21T14:07:24.944Z,97422.38
2023-05-21T14:09:59.068Z,97418.09
2023-05-21T14:12:33.337Z,97411.91
2023-05-21T14:15:08.023Z,97411.78
2023-05-21T14:17:42.428Z,97406.03
2023-05-21T14:20:17.042Z,97406.19
2023-05-21T14:22:50.329Z,97398.63
2023-05-21T14:25:23.377Z,97407.38
2023-05-21T14:27:56.477Z,97405.63
2023-05-21T14:30:29.513Z,97409.22
2023-05-21T14:33:02.616Z,97402.25
2023-05-21T14:35:37.253Z,97397.81
2023-05-21T14:38:10.609Z,97402.22
2023-05-21T14:40:43.704Z,97406.69
2023-05-21T14:43:16.894Z,97401.41
2023-05-21T14:45:50.274Z,97396.44
2023-05-21T14:48:24.007Z,97394.09
2023-05-21T14:50:58.454Z,97388.13
2023-05-21T14:53:32.281Z,97394.28
2023-05-21T14:56:06.125Z,97396.25
2023-05-21T14:58:39.232Z,97388.38
2023-05-21T15:01:12.503Z,97378.69
2023-05-21T15:03:45.665Z,97390.91
2023-05-21T15:06:20.161Z,97387.53
2023-05-21T15:08:53.208Z,97391.09
2023-05-21T15:11:26.247Z,97389.34
2023-05-21T15:13:59.282Z,97398.25
2023-05-21T15:16:32.513Z,97387.97
2023-05-21T15:19:05.953Z,97394.00
2023-05-21T15:21:40.450Z,97393.25
2023-05-21T15:24:13.505Z,97390.91
2023-05-21T15:26:46.992Z,97390.72
2023-05-21T15:29:20.036Z,97380.31
2023-05-21T15:31:53.128Z,97375.88
2023-05-21T15:34:26.562Z,97381.94
2023-05-21T15:37:01.138Z,97375.97
2023-05-21T15:39:34.233Z,97369.75
2023-05-21T15:42:07.268Z,97367.97
2023-05-21T15:44:41.174Z,97372.28
2023-05-21T15:47:14.239Z,97372.19
2023-05-21T15:49:47.357Z,97364.38
2023-05-21T15:52:21.791Z,97364.28
2023-05-21T15:54:54.868Z,97368.53
2023-05-21T15:57:27.931Z,97363.22
2023-05-21T16:00:01.143Z,97356.06
2023-05-21T16:02:34.356Z,97364.13
2023-05-21T16:05:07.882Z,97369.31
2023-05-21T16:07:42.544Z,97363.28
2023-05-21T16:10:15.678Z,97373.69
2023-05-21T16:12:48.857Z,97360.44
2023-05-21T16:15:22.288Z,97365.91
2023-05-21T16:17:55.502Z,97371.13
2023-05-21T16:20:30.654Z,97364.94
2023-05-21T16:23:06.418Z,97372.78
2023-05-21T16:25:39.650Z,97380.66
2023-05-21T16:28:13.170Z,97369.38
2023-05-21T16:30:46.270Z,97379.03
2023-05-21T16:33:20.385Z,97379.00
2023-05-21T16:35:54.377Z,97375.38
2023-05-21T16:38:28.894Z,97379.16
2023-05-21T16:41:01.975Z,97372.28
2023-05-21T16:43:35.196Z,97371.66
2023-05-21T16:46:08.333Z,97373.50
2023-05-21T16:48:42.700Z,97371.91
2023-05-21T16:51:15.815Z,97370.28
2023-05-21T16:53:50.351Z,97365.97
2023-05-21T16:56:23.550Z,97368.63
2023-05-21T16:58:56.659Z,97372.25
2023-05-21T17:01:29.849Z,97364.41
2023-05-21T17:04:03.178Z,97374.03
2023-05-21T17:06:36.373Z,97361.88
2023-05-21T17:09:10.799Z,97375.88
2023-05-21T17:11:44.072Z,97365.47
2023-05-21T17:14:27.005Z,97369.03
2023-05-21T17:17:07.699Z,97370.88
2023-05-21T17:19:41.721Z,97370.91
2023-05-21T17:22:15.932Z,97366.63
2023-05-21T17:24:50.532Z,97368.44
2023-05-21T17:27:23.602Z,97370.25
2023-05-21T17:29:57.247Z,97372.09
2023-05-21T17:32:30.373Z,97376.50
2023-05-21T17:35:03.716Z,97383.53
2023-05-21T17:37:36.813Z,97386.22
2023-05-21T17:40:12.906Z,97387.97
2023-05-21T17:42:46.011Z,97394.97
2023-05-21T17:45:19.266Z,97389.81
2023-05-21T17:47:52.967Z,97393.31
2023-05-21T17:50:26.112Z,97390.72
2023-05-21T17:52:59.294Z,97395.16
2023-05-21T17:55:33.756Z,97385.59
2023-05-21T17:58:06.811Z,97392.53
2023-05-21T18:00:39.931Z,97394.28
2023-05-21T18:03:13.050Z,97385.66
2023-05-21T18:05:46.109Z,97390.00
2023-05-21T18:08:19.176Z,97397.84
2023-05-21T18:10:53.644Z,97398.72
2023-05-21T18:13:26.749Z,97389.16
2023-05-21T18:16:00.120Z,97402.13
2023-05-21T18:18:33.289Z,97397.78
2023-05-21T18:21:06.372Z,97402.97
2023-05-21T18:23:39.997Z,97397.72
2023-05-21T18:26:14.433Z,97400.28
2023-05-21T18:28:47.598Z,97400.28
2023-05-21T18:31:20.915Z,97404.59
2023-05-21T18:33:54.121Z,97401.91
2023-05-21T18:36:27.540Z,97402.75
2023-05-21T18:39:00.566Z,97407.03
2023-05-21T18:41:35.344Z,97409.56
2023-05-21T18:44:08.384Z,97411.25
2023-05-21T18:46:42.291Z,97408.59
2023-05-21T18:49:15.434Z,97402.50
2023-05-21T18:51:48.705Z,97407.66
2023-05-21T18:54:21.789Z,97413.59
2023-05-21T18:56:59.575Z,97415.25
2023-05-21T18:59:32.712Z,97417.72
2023-05-21T19:02:06.499Z,97420.22
2023-05-21T19:04:39.629Z,97427.06
2023-05-21T19:07:13.003Z,97425.22
2023-05-21T19:09:46.125Z,97427.72
2023-05-21T19:12:20.615Z,97437.97
2023-05-21T19:14:53.874Z,97439.53
2023-05-21T19:17:27.085Z,97442.88
2023-05-21T19:20:00.874Z,97443.66
2023-05-21T19:22:34.146Z,97448.78
2023-05-21T19:25:08.290Z,97439.94
2023-05-21T19:27:43.040Z,97445.09
2023-05-21T19:30:16.521Z,97451.03
2023-05-21T19:32:49.665Z,97450.00
2023-05-21T19:35:23.480Z,97457.72
2023-05-21T19:38:00.632Z,97460.19
2023-05-21T19:40:35.450Z,97460.06
2023-05-21T19:43:10.055Z,97455.66
2023-05-21T19:45:43.168Z,97465.94
2023-05-21T19:48:17.030Z,97476.16
2023-05-21T19:50:50.119Z,97470.84
2023-05-21T19:53:24.246Z,97477.63
2023-05-21T19:55:57.328Z,97471.38
2023-05-21T19:58:33.091Z,97476.41
2023-05-21T20:01:06.427Z,97475.44
2023-05-21T20:03:42.613Z,97477.94
2023-05-21T20:06:18.744Z,97482.09
2023-05-21T20:08:52.043Z,97482.81
2023-05-21T20:11:25.984Z,97481.81
2023-05-21T20:14:02.124Z,97477.38
2023-05-21T20:16:35.312Z,97480.78
2023-05-21T20:19:10.826Z,97482.38
2023-05-21T20:21:44.088Z,97477.84
2023-05-21T20:24:17.285Z,97482.97
2023-05-21T20:26:50.359Z,97483.84
2023-05-21T20:29:24.945Z,97480.22
2023-05-21T20:31:58.057Z,97476.72
2023-05-21T20:34:31.904Z,97481.88
2023-05-21T20:37:05.244Z,97485.31
2023-05-21T20:39:39.424Z,97480.09
2023-05-21T20:42:15.006Z,97479.66
2023-05-21T20:44:49.667Z,97477.03
2023-05-21T20:47:23.375Z,97476.03
2023-05-21T20:49:57.700Z,97482.88
2023-05-21T20:52:30.783Z,97492.16
2023-05-21T20:55:04.520Z,97479.97
2023-05-21T20:57:37.675Z,97484.13
2023-05-21T21:00:15.847Z,97495.97
2023-05-21T21:02:49.587Z,97497.66
2023-05-21T21:05:24.310Z,97492.16
2023-05-21T21:08:02.377Z,97492.50
2023-05-21T21:10:35.917Z,97499.66
2023-05-21T21:13:09.451Z,97499.00
2023-05-21T21:15:44.149Z,97509.28
2023-05-21T21:18:17.608Z,97503.97
2023-05-21T21:20:50.731Z,97508.16
2023-05-21T21:23:25.468Z,97507.28
2023-05-21T21:25:58.647Z,97501.19
2023-05-21T21:28:31.776Z,97507.16
2023-05-21T21:31:06.316Z,97502.66
2023-05-21T21:33:39.418Z,97506.72
2023-05-21T21:36:13.103Z,97509.06
2023-05-21T21:38:46.221Z,97502.97
2023-05-21T21:41:20.374Z,97501.13
2023-05-21T21:43:53.455Z,97504.53
2023-05-21T21:46:27.943Z,97500.75
2023-05-21T21:49:01.082Z,97500.66
2023-05-21T21:51:35.392Z,97506.66
2023-05-21T21:54:08.484Z,97500.47
2023-05-21T21:56:41.542Z,97508.97
2023-05-21T21:59:15.064Z,97504.53
2023-05-21T22:01:49.686Z,97508.69
2023-05-21T22:04:22.790Z,97505.16
2023-05-21T22:06:56.006Z,97499.06
2023-05-21T22:09:29.157Z,97511.94
2023-05-21T22:12:07.586Z,97511.78
2023-05-21T22:14:43.646Z,97508.28
2023-05-21T22:17:18.101Z,97509.84
2023-05-21T22:19:51.315Z,97503.03
2023-05-21T22:22:25.907Z,97504.69
2023-05-21T22:24:58.972Z,97502.00
2023-05-21T22:27:32.202Z,97505.19
2023-05-21T22:30:06.881Z,97502.47
2023-05-21T22:32:41.507Z,97516.06
2023-05-21T22:35:14.855Z,97507.22
2023-05-21T22:37:47.947Z,97506.41
2023-05-21T22:40:21.155Z,97503.81
2023-05-21T22:42:54.252Z,97507.03
2023-05-21T22:45:28.508Z,97512.16
2023-05-21T22:48:07.393Z,97512.88
2023-05-21T22:50:40.905Z,97509.38
2023-05-21T22:53:14.345Z,97505.06
2023-05-21T22:55:47.463Z,97500.06
2023-05-21T22:58:20.756Z,97509.47
2023-05-21T23:00:53.834Z,97506.66
2023-05-21T23:03:28.265Z,97506.50
2023-05-21T23:06:01.536Z,97502.78
2023-05-21T23:08:34.617Z,97507.00
2023-05-21T23:11:07.726Z,97511.03
2023-05-21T23:13:40.793Z,97514.47
2023-05-21T23:16:14.585Z,97510.94
2023-05-21T23:18:49.913Z,97514.34
2023-05-21T23:21:23.328Z,97500.53
2023-05-21T23:23:56.566Z,97507.31
2023-05-21T23:26:29.685Z,97503.16
2023-05-21T23:29:03.332Z,97507.03
2023-05-21T23:31:37.065Z,97508.56
2023-05-21T23:34:12.234Z,97513.81
2023-05-21T23:36:45.360Z,97517.16
2023-05-21T23:39:18.385Z,97511.94
2023-05-21T23:41:51.756Z,97517.06
2023-05-21T23:44:24.817Z,97505.88
2023-05-21T23:46:57.863Z,97510.16
2023-05-21T23:49:32.260Z,97514.19
2023-05-21T23:52:07.305Z,97509.03
2023-05-21T23:54:41.505Z,97516.69
2023-05-21T23:57:14.580Z,97517.16
2023-05-21T23:59:47.659Z,97519.72
